sensor_id;sensor_type;location;lat;lon;timestamp;temperature;humidity
4602;DHT22;2313;48.552;9.370;2023-04-03T00:01:34;4.20;99.90
4602;DHT22;2313;48.552;9.370;2023-04-03T00:04:00;4.20;99.90
4602;DHT22;2313;48.552;9.370;2023-04-03T00:06:26;4.20;99.90
4602;DHT22;2313;48.552;9.370;2023-04-03T00:08:52;4.20;99.90
4602;DHT22;2313;48.552;9.370;2023-04-03T00:11:18;4.20;99.90
4602;DHT22;2313;48.552;9.370;2023-04-03T00:13:45;4.10;99.90
4602;DHT22;2313;48.552;9.370;2023-04-03T00:16:11;4.20;99.90
4602;DHT22;2313;48.552;9.370;2023-04-03T00:18:38;4.10;99.90
4602;DHT22;2313;48.552;9.370;2023-04-03T00:21:04;4.20;99.90
4602;DHT22;2313;48.552;9.370;2023-04-03T00:23:30;4.20;99.90
4602;DHT22;2313;48.552;9.370;2023-04-03T00:25:56;4.20;99.90
4602;DHT22;2313;48.552;9.370;2023-04-03T00:28:22;4.20;99.90
4602;DHT22;2313;48.552;9.370;2023-04-03T00:30:51;4.20;99.90
4602;DHT22;2313;48.552;9.370;2023-04-03T00:33:16;4.20;99.90
4602;DHT22;2313;48.552;9.370;2023-04-03T00:35:42;4.10;99.90
4602;DHT22;2313;48.552;9.370;2023-04-03T00:38:08;4.20;99.90
4602;DHT22;2313;48.552;9.370;2023-04-03T00:40:36;4.20;99.90
4602;DHT22;2313;48.552;9.370;2023-04-03T00:43:10;4.10;99.90
4602;DHT22;2313;48.552;9.370;2023-04-03T00:45:40;4.10;99.90
4602;DHT22;2313;48.552;9.370;2023-04-03T00:48:08;4.10;99.90
4602;DHT22;2313;48.552;9.370;2023-04-03T00:50:37;4.10;99.90
4602;DHT22;2313;48.552;9.370;2023-04-03T00:53:04;4.10;99.90
4602;DHT22;2313;48.552;9.370;2023-04-03T00:55:31;4.10;99.90
4602;DHT22;2313;48.552;9.370;2023-04-03T00:57:58;4.10;99.90
4602;DHT22;2313;48.552;9.370;2023-04-03T01:00:24;4.10;99.90
4602;DHT22;2313;48.552;9.370;2023-04-03T01:02:51;4.00;99.90
4602;DHT22;2313;48.552;9.370;2023-04-03T01:05:17;4.10;99.90
4602;DHT22;2313;48.552;9.370;2023-04-03T01:07:45;4.10;99.90
4602;DHT22;2313;48.552;9.370;2023-04-03T01:10:13;4.00;99.90
4602;DHT22;2313;48.552;9.370;2023-04-03T01:12:41;3.90;99.90
4602;DHT22;2313;48.552;9.370;2023-04-03T01:15:15;3.90;99.90
4602;DHT22;2313;48.552;9.370;2023-04-03T01:25:31;3.90;99.90
4602;DHT22;2313;48.552;9.370;2023-04-03T01:27:57;3.90;99.90
4602;DHT22;2313;48.552;9.370;2023-04-03T01:30:27;3.90;99.90
4602;DHT22;2313;48.552;9.370;2023-04-03T01:32:55;3.90;99.90
4602;DHT22;2313;48.552;9.370;2023-04-03T01:35:21;3.80;99.90
4602;DHT22;2313;48.552;9.370;2023-04-03T01:37:47;3.90;99.90
4602;DHT22;2313;48.552;9.370;2023-04-03T01:40:12;3.90;99.90
4602;DHT22;2313;48.552;9.370;2023-04-03T01:42:38;3.90;99.90
4602;DHT22;2313;48.552;9.370;2023-04-03T01:45:04;3.80;99.90
4602;DHT22;2313;48.552;9.370;2023-04-03T01:47:30;3.80;99.90
4602;DHT22;2313;48.552;9.370;2023-04-03T01:49:56;3.90;99.90
4602;DHT22;2313;48.552;9.370;2023-04-03T01:52:21;3.90;99.90
4602;DHT22;2313;48.552;9.370;2023-04-03T01:54:47;3.80;99.90
4602;DHT22;2313;48.552;9.370;2023-04-03T01:57:12;3.80;99.90
4602;DHT22;2313;48.552;9.370;2023-04-03T01:59:40;3.80;99.90
4602;DHT22;2313;48.552;9.370;2023-04-03T02:02:06;3.70;99.90
4602;DHT22;2313;48.552;9.370;2023-04-03T02:04:31;3.70;99.90
4602;DHT22;2313;48.552;9.370;2023-04-03T02:06:57;3.70;99.90
4602;DHT22;2313;48.552;9.370;2023-04-03T02:09:22;3.60;99.90
4602;DHT22;2313;48.552;9.370;2023-04-03T02:11:48;3.60;99.90
4602;DHT22;2313;48.552;9.370;2023-04-03T02:14:14;3.60;99.90
4602;DHT22;2313;48.552;9.370;2023-04-03T02:16:39;3.70;99.90
4602;DHT22;2313;48.552;9.370;2023-04-03T02:19:05;3.70;99.90
4602;DHT22;2313;48.552;9.370;2023-04-03T02:21:31;3.70;99.90
4602;DHT22;2313;48.552;9.370;2023-04-03T02:23:57;3.80;99.90
4602;DHT22;2313;48.552;9.370;2023-04-03T02:26:22;3.70;99.90
4602;DHT22;2313;48.552;9.370;2023-04-03T02:28:48;3.70;99.90
4602;DHT22;2313;48.552;9.370;2023-04-03T02:31:13;3.80;99.90
4602;DHT22;2313;48.552;9.370;2023-04-03T02:33:39;3.80;99.90
4602;DHT22;2313;48.552;9.370;2023-04-03T02:36:06;3.80;99.90
4602;DHT22;2313;48.552;9.370;2023-04-03T02:38:32;3.70;99.90
4602;DHT22;2313;48.552;9.370;2023-04-03T02:41:08;3.70;99.90
4602;DHT22;2313;48.552;9.370;2023-04-03T02:43:34;3.70;99.90
4602;DHT22;2313;48.552;9.370;2023-04-03T02:46:00;3.70;99.90
4602;DHT22;2313;48.552;9.370;2023-04-03T02:48:26;3.70;99.90
4602;DHT22;2313;48.552;9.370;2023-04-03T02:50:51;3.70;99.90
4602;DHT22;2313;48.552;9.370;2023-04-03T02:53:18;3.70;99.90
4602;DHT22;2313;48.552;9.370;2023-04-03T02:55:44;3.70;99.90
4602;DHT22;2313;48.552;9.370;2023-04-03T02:58:10;3.80;99.90
4602;DHT22;2313;48.552;9.370;2023-04-03T03:00:36;3.80;99.90
4602;DHT22;2313;48.552;9.370;2023-04-03T03:03:01;3.80;99.90
4602;DHT22;2313;48.552;9.370;2023-04-03T03:05:28;3.90;99.90
4602;DHT22;2313;48.552;9.370;2023-04-03T03:07:53;3.90;99.90
4602;DHT22;2313;48.552;9.370;2023-04-03T03:10:20;4.00;99.90
4602;DHT22;2313;48.552;9.370;2023-04-03T03:12:46;4.00;99.90
4602;DHT22;2313;48.552;9.370;2023-04-03T03:15:12;3.80;99.90
4602;DHT22;2313;48.552;9.370;2023-04-03T03:17:37;3.80;99.90
4602;DHT22;2313;48.552;9.370;2023-04-03T03:20:04;3.70;99.90
4602;DHT22;2313;48.552;9.370;2023-04-03T03:22:30;3.70;99.90
4602;DHT22;2313;48.552;9.370;2023-04-03T03:24:56;3.60;99.90
4602;DHT22;2313;48.552;9.370;2023-04-03T03:27:21;3.60;99.90
4602;DHT22;2313;48.552;9.370;2023-04-03T03:29:47;3.70;99.90
4602;DHT22;2313;48.552;9.370;2023-04-03T03:32:13;3.70;99.90
4602;DHT22;2313;48.552;9.370;2023-04-03T03:34:38;3.70;99.90
4602;DHT22;2313;48.552;9.370;2023-04-03T03:37:04;3.50;99.90
4602;DHT22;2313;48.552;9.370;2023-04-03T03:39:30;3.70;99.90
4602;DHT22;2313;48.552;9.370;2023-04-03T03:41:55;3.60;99.90
4602;DHT22;2313;48.552;9.370;2023-04-03T03:44:21;3.70;99.90
4602;DHT22;2313;48.552;9.370;2023-04-03T03:46:47;3.60;99.90
4602;DHT22;2313;48.552;9.370;2023-04-03T03:49:12;3.60;99.90
4602;DHT22;2313;48.552;9.370;2023-04-03T03:51:39;3.60;99.90
4602;DHT22;2313;48.552;9.370;2023-04-03T03:54:05;3.60;99.90
4602;DHT22;2313;48.552;9.370;2023-04-03T03:56:31;3.70;99.90
4602;DHT22;2313;48.552;9.370;2023-04-03T03:58:57;3.70;99.90
4602;DHT22;2313;48.552;9.370;2023-04-03T04:01:23;3.70;99.90
4602;DHT22;2313;48.552;9.370;2023-04-03T04:03:50;3.60;99.90
4602;DHT22;2313;48.552;9.370;2023-04-03T04:06:16;3.60;99.90
4602;DHT22;2313;48.552;9.370;2023-04-03T04:08:42;3.60;99.90
4602;DHT22;2313;48.552;9.370;2023-04-03T04:11:08;3.50;99.90
4602;DHT22;2313;48.552;9.370;2023-04-03T04:13:34;3.50;99.90
4602;DHT22;2313;48.552;9.370;2023-04-03T04:16:00;3.50;99.90
4602;DHT22;2313;48.552;9.370;2023-04-03T04:18:25;3.50;99.90
4602;DHT22;2313;48.552;9.370;2023-04-03T04:20:51;3.50;99.90
4602;DHT22;2313;48.552;9.370;2023-04-03T04:23:18;3.50;99.90
4602;DHT22;2313;48.552;9.370;2023-04-03T04:25:45;3.50;99.90
4602;DHT22;2313;48.552;9.370;2023-04-03T04:28:11;3.50;99.90
4602;DHT22;2313;48.552;9.370;2023-04-03T04:30:37;3.50;99.90
4602;DHT22;2313;48.552;9.370;2023-04-03T04:33:03;3.50;99.90
4602;DHT22;2313;48.552;9.370;2023-04-03T04:35:29;3.50;99.90
4602;DHT22;2313;48.552;9.370;2023-04-03T04:37:54;3.50;99.90
4602;DHT22;2313;48.552;9.370;2023-04-03T04:40:20;3.50;99.90
4602;DHT22;2313;48.552;9.370;2023-04-03T04:42:46;3.40;99.90
4602;DHT22;2313;48.552;9.370;2023-04-03T04:45:11;3.30;99.90
4602;DHT22;2313;48.552;9.370;2023-04-03T04:47:37;3.40;99.90
4602;DHT22;2313;48.552;9.370;2023-04-03T04:50:03;3.40;99.90
4602;DHT22;2313;48.552;9.370;2023-04-03T04:52:29;3.40;99.90
4602;DHT22;2313;48.552;9.370;2023-04-03T04:54:54;3.50;99.90
4602;DHT22;2313;48.552;9.370;2023-04-03T04:57:20;3.50;99.90
4602;DHT22;2313;48.552;9.370;2023-04-03T04:59:46;3.50;99.90
4602;DHT22;2313;48.552;9.370;2023-04-03T05:02:11;3.50;99.90
4602;DHT22;2313;48.552;9.370;2023-04-03T05:04:37;3.60;99.90
4602;DHT22;2313;48.552;9.370;2023-04-03T05:07:02;3.60;99.90
4602;DHT22;2313;48.552;9.370;2023-04-03T05:09:28;3.70;99.90
4602;DHT22;2313;48.552;9.370;2023-04-03T05:11:54;3.70;99.90
4602;DHT22;2313;48.552;9.370;2023-04-03T05:14:20;3.70;99.90
4602;DHT22;2313;48.552;9.370;2023-04-03T05:16:45;3.70;99.90
4602;DHT22;2313;48.552;9.370;2023-04-03T05:19:11;3.70;99.90
4602;DHT22;2313;48.552;9.370;2023-04-03T05:21:36;3.70;99.90
4602;DHT22;2313;48.552;9.370;2023-04-03T05:24:02;3.80;99.90
4602;DHT22;2313;48.552;9.370;2023-04-03T05:26:31;3.80;99.90
4602;DHT22;2313;48.552;9.370;2023-04-03T05:28:57;3.80;99.50
4602;DHT22;2313;48.552;9.370;2023-04-03T05:31:22;3.90;99.80
4602;DHT22;2313;48.552;9.370;2023-04-03T05:33:48;3.90;99.10
4602;DHT22;2313;48.552;9.370;2023-04-03T05:36:14;3.90;99.90
4602;DHT22;2313;48.552;9.370;2023-04-03T05:38:40;3.90;99.60
4602;DHT22;2313;48.552;9.370;2023-04-03T05:41:05;4.00;99.00
4602;DHT22;2313;48.552;9.370;2023-04-03T05:43:31;3.90;99.90
4602;DHT22;2313;48.552;9.370;2023-04-03T05:45:57;3.80;99.90
4602;DHT22;2313;48.552;9.370;2023-04-03T05:48:22;3.80;99.90
4602;DHT22;2313;48.552;9.370;2023-04-03T05:50:48;3.80;99.90
4602;DHT22;2313;48.552;9.370;2023-04-03T05:53:23;3.90;99.90
4602;DHT22;2313;48.552;9.370;2023-04-03T05:55:50;3.90;99.90
4602;DHT22;2313;48.552;9.370;2023-04-03T05:58:15;3.80;99.90
4602;DHT22;2313;48.552;9.370;2023-04-03T06:00:41;3.90;99.90
4602;DHT22;2313;48.552;9.370;2023-04-03T06:03:07;4.00;99.90
4602;DHT22;2313;48.552;9.370;2023-04-03T06:05:32;4.00;99.90
4602;DHT22;2313;48.552;9.370;2023-04-03T06:07:58;4.00;99.90
4602;DHT22;2313;48.552;9.370;2023-04-03T06:10:24;3.90;99.90
4602;DHT22;2313;48.552;9.370;2023-04-03T06:12:50;3.90;99.90
4602;DHT22;2313;48.552;9.370;2023-04-03T06:15:15;4.00;99.90
4602;DHT22;2313;48.552;9.370;2023-04-03T06:17:42;3.90;99.90
4602;DHT22;2313;48.552;9.370;2023-04-03T06:20:08;3.80;99.90
4602;DHT22;2313;48.552;9.370;2023-04-03T06:22:34;3.80;99.90
4602;DHT22;2313;48.552;9.370;2023-04-03T06:25:01;3.70;99.90
4602;DHT22;2313;48.552;9.370;2023-04-03T06:27:26;3.70;99.90
4602;DHT22;2313;48.552;9.370;2023-04-03T06:29:52;3.80;99.90
4602;DHT22;2313;48.552;9.370;2023-04-03T06:32:18;3.80;99.90
4602;DHT22;2313;48.552;9.370;2023-04-03T06:34:43;3.80;99.90
4602;DHT22;2313;48.552;9.370;2023-04-03T06:37:19;3.80;99.90
4602;DHT22;2313;48.552;9.370;2023-04-03T06:39:46;3.80;99.90
4602;DHT22;2313;48.552;9.370;2023-04-03T06:42:12;3.90;99.90
4602;DHT22;2313;48.552;9.370;2023-04-03T06:44:38;4.00;99.90
4602;DHT22;2313;48.552;9.370;2023-04-03T06:47:04;4.00;99.90
4602;DHT22;2313;48.552;9.370;2023-04-03T06:49:31;4.10;99.90
4602;DHT22;2313;48.552;9.370;2023-04-03T06:51:57;4.10;99.90
4602;DHT22;2313;48.552;9.370;2023-04-03T06:54:23;4.10;99.90
4602;DHT22;2313;48.552;9.370;2023-04-03T06:56:48;4.20;99.90
4602;DHT22;2313;48.552;9.370;2023-04-03T06:59:14;4.20;99.90
4602;DHT22;2313;48.552;9.370;2023-04-03T07:01:40;4.30;99.90
4602;DHT22;2313;48.552;9.370;2023-04-03T07:04:07;4.30;99.90
4602;DHT22;2313;48.552;9.370;2023-04-03T07:06:34;4.40;99.90
4602;DHT22;2313;48.552;9.370;2023-04-03T07:09:00;4.30;99.90
4602;DHT22;2313;48.552;9.370;2023-04-03T07:11:26;4.50;99.90
4602;DHT22;2313;48.552;9.370;2023-04-03T07:13:52;4.60;99.90
4602;DHT22;2313;48.552;9.370;2023-04-03T07:16:19;4.70;99.90
4602;DHT22;2313;48.552;9.370;2023-04-03T07:18:45;4.70;99.90
4602;DHT22;2313;48.552;9.370;2023-04-03T07:21:11;4.90;99.90
4602;DHT22;2313;48.552;9.370;2023-04-03T07:23:37;4.80;99.90
4602;DHT22;2313;48.552;9.370;2023-04-03T07:26:03;4.90;99.90
4602;DHT22;2313;48.552;9.370;2023-04-03T07:28:29;5.10;99.90
4602;DHT22;2313;48.552;9.370;2023-04-03T07:31:06;5.20;99.90
4602;DHT22;2313;48.552;9.370;2023-04-03T07:33:34;5.20;99.90
4602;DHT22;2313;48.552;9.370;2023-04-03T07:36:01;5.20;99.90
4602;DHT22;2313;48.552;9.370;2023-04-03T07:38:27;5.30;99.90
4602;DHT22;2313;48.552;9.370;2023-04-03T07:40:53;5.50;99.90
4602;DHT22;2313;48.552;9.370;2023-04-03T07:43:19;5.40;99.90
4602;DHT22;2313;48.552;9.370;2023-04-03T07:45:47;5.50;99.90
4602;DHT22;2313;48.552;9.370;2023-04-03T07:48:15;5.70;99.90
4602;DHT22;2313;48.552;9.370;2023-04-03T07:50:41;5.70;99.90
4602;DHT22;2313;48.552;9.370;2023-04-03T07:53:07;5.80;99.90
4602;DHT22;2313;48.552;9.370;2023-04-03T07:55:33;5.90;99.90
4602;DHT22;2313;48.552;9.370;2023-04-03T07:57:59;6.00;99.90
4602;DHT22;2313;48.552;9.370;2023-04-03T08:00:24;6.00;99.90
4602;DHT22;2313;48.552;9.370;2023-04-03T08:02:50;6.00;99.90
4602;DHT22;2313;48.552;9.370;2023-04-03T08:05:20;6.00;99.90
4602;DHT22;2313;48.552;9.370;2023-04-03T08:07:47;5.90;99.90
4602;DHT22;2313;48.552;9.370;2023-04-03T08:10:13;6.00;99.90
4602;DHT22;2313;48.552;9.370;2023-04-03T08:12:40;5.80;99.90
4602;DHT22;2313;48.552;9.370;2023-04-03T08:15:06;5.80;99.90
4602;DHT22;2313;48.552;9.370;2023-04-03T08:17:33;5.90;99.90
4602;DHT22;2313;48.552;9.370;2023-04-03T08:20:00;6.10;99.90
4602;DHT22;2313;48.552;9.370;2023-04-03T08:22:26;6.10;99.90
4602;DHT22;2313;48.552;9.370;2023-04-03T08:24:52;6.10;98.90
4602;DHT22;2313;48.552;9.370;2023-04-03T08:27:17;6.00;99.50
4602;DHT22;2313;48.552;9.370;2023-04-03T08:29:43;6.10;99.40
4602;DHT22;2313;48.552;9.370;2023-04-03T08:32:09;6.20;99.10
4602;DHT22;2313;48.552;9.370;2023-04-03T08:34:34;6.10;99.90
4602;DHT22;2313;48.552;9.370;2023-04-03T08:37:02;6.10;98.30
4602;DHT22;2313;48.552;9.370;2023-04-03T08:39:28;6.10;99.60
4602;DHT22;2313;48.552;9.370;2023-04-03T08:41:58;6.10;99.10
4602;DHT22;2313;48.552;9.370;2023-04-03T08:47:24;6.10;99.30
4602;DHT22;2313;48.552;9.370;2023-04-03T08:49:55;6.20;99.90
4602;DHT22;2313;48.552;9.370;2023-04-03T08:52:35;6.30;98.10
4602;DHT22;2313;48.552;9.370;2023-04-03T08:55:05;6.30;98.20
4602;DHT22;2313;48.552;9.370;2023-04-03T08:57:54;6.30;99.40
4602;DHT22;2313;48.552;9.370;2023-04-03T09:00:25;6.30;99.60
4602;DHT22;2313;48.552;9.370;2023-04-03T09:02:56;6.10;99.90
4602;DHT22;2313;48.552;9.370;2023-04-03T09:05:48;6.00;99.90
4602;DHT22;2313;48.552;9.370;2023-04-03T09:08:30;6.10;99.90
4602;DHT22;2313;48.552;9.370;2023-04-03T09:14:31;6.20;99.90
4602;DHT22;2313;48.552;9.370;2023-04-03T09:17:04;6.20;99.90
4602;DHT22;2313;48.552;9.370;2023-04-03T09:19:41;6.10;98.90
4602;DHT22;2313;48.552;9.370;2023-04-03T09:22:17;6.20;98.80
4602;DHT22;2313;48.552;9.370;2023-04-03T09:24:48;6.20;97.30
4602;DHT22;2313;48.552;9.370;2023-04-03T09:27:15;6.30;97.70
4602;DHT22;2313;48.552;9.370;2023-04-03T09:29:44;6.40;98.80
4602;DHT22;2313;48.552;9.370;2023-04-03T09:32:28;6.50;98.80
4602;DHT22;2313;48.552;9.370;2023-04-03T09:34:57;6.60;97.60
4602;DHT22;2313;48.552;9.370;2023-04-03T09:40:04;6.80;98.70
4602;DHT22;2313;48.552;9.370;2023-04-03T09:42:30;6.80;98.10
4602;DHT22;2313;48.552;9.370;2023-04-03T09:45:04;6.90;97.70
4602;DHT22;2313;48.552;9.370;2023-04-03T09:47:32;6.90;96.50
4602;DHT22;2313;48.552;9.370;2023-04-03T09:52:44;6.80;96.50
4602;DHT22;2313;48.552;9.370;2023-04-03T09:55:18;6.90;97.20
4602;DHT22;2313;48.552;9.370;2023-04-03T09:57:46;7.00;95.90
4602;DHT22;2313;48.552;9.370;2023-04-03T10:00:21;7.00;95.30
4602;DHT22;2313;48.552;9.370;2023-04-03T10:02:54;7.00;94.80
4602;DHT22;2313;48.552;9.370;2023-04-03T10:08:21;7.10;94.10
4602;DHT22;2313;48.552;9.370;2023-04-03T10:11:09;6.80;93.00
4602;DHT22;2313;48.552;9.370;2023-04-03T10:13:35;6.80;94.20
4602;DHT22;2313;48.552;9.370;2023-04-03T10:16:11;6.70;94.30
4602;DHT22;2313;48.552;9.370;2023-04-03T10:18:45;6.60;95.10
4602;DHT22;2313;48.552;9.370;2023-04-03T10:21:35;6.60;94.70
4602;DHT22;2313;48.552;9.370;2023-04-03T10:26:50;6.50;93.40
4602;DHT22;2313;48.552;9.370;2023-04-03T10:29:38;6.40;92.50
4602;DHT22;2313;48.552;9.370;2023-04-03T10:38:17;6.90;92.30
4602;DHT22;2313;48.552;9.370;2023-04-03T10:41:04;6.90;91.00
4602;DHT22;2313;48.552;9.370;2023-04-03T10:44:10;7.20;91.60
4602;DHT22;2313;48.552;9.370;2023-04-03T10:46:49;7.40;91.80
4602;DHT22;2313;48.552;9.370;2023-04-03T10:54:39;7.30;91.00
4602;DHT22;2313;48.552;9.370;2023-04-03T10:57:08;7.10;91.90
4602;DHT22;2313;48.552;9.370;2023-04-03T10:59:49;7.10;92.30
4602;DHT22;2313;48.552;9.370;2023-04-03T11:02:31;6.80;92.20
4602;DHT22;2313;48.552;9.370;2023-04-03T11:05:18;6.60;93.40
4602;DHT22;2313;48.552;9.370;2023-04-03T11:07:49;6.50;92.90
4602;DHT22;2313;48.552;9.370;2023-04-03T11:12:54;6.80;92.40
4602;DHT22;2313;48.552;9.370;2023-04-03T11:15:22;6.80;92.60
4602;DHT22;2313;48.552;9.370;2023-04-03T11:17:52;6.80;90.70
4602;DHT22;2313;48.552;9.370;2023-04-03T11:22:58;6.70;91.40
4602;DHT22;2313;48.552;9.370;2023-04-03T11:25:26;6.60;91.40
4602;DHT22;2313;48.552;9.370;2023-04-03T11:28:03;6.60;91.70
4602;DHT22;2313;48.552;9.370;2023-04-03T11:38:45;6.60;90.80
4602;DHT22;2313;48.552;9.370;2023-04-03T11:41:13;6.40;91.00
4602;DHT22;2313;48.552;9.370;2023-04-03T11:43:59;6.50;91.20
4602;DHT22;2313;48.552;9.370;2023-04-03T11:46:56;6.50;90.20
4602;DHT22;2313;48.552;9.370;2023-04-03T11:49:59;6.50;90.60
4602;DHT22;2313;48.552;9.370;2023-04-03T12:16:24;6.70;86.80
4602;DHT22;2313;48.552;9.370;2023-04-03T12:24:24;6.90;87.40
4602;DHT22;2313;48.552;9.370;2023-04-03T12:39:51;7.00;84.40
4602;DHT22;2313;48.552;9.370;2023-04-03T12:45:24;6.90;84.00
4602;DHT22;2313;48.552;9.370;2023-04-03T12:47:55;6.80;85.20
4602;DHT22;2313;48.552;9.370;2023-04-03T12:50:40;6.70;83.80
4602;DHT22;2313;48.552;9.370;2023-04-03T12:55:37;6.80;82.70
4602;DHT22;2313;48.552;9.370;2023-04-03T12:58:25;6.90;83.10
4602;DHT22;2313;48.552;9.370;2023-04-03T13:01:03;6.90;82.40
4602;DHT22;2313;48.552;9.370;2023-04-03T13:03:34;6.90;82.10
4602;DHT22;2313;48.552;9.370;2023-04-03T13:06:02;7.10;82.20
4602;DHT22;2313;48.552;9.370;2023-04-03T13:08:29;7.10;82.20
4602;DHT22;2313;48.552;9.370;2023-04-03T13:11:06;6.90;80.80
4602;DHT22;2313;48.552;9.370;2023-04-03T13:13:33;7.00;83.40
4602;DHT22;2313;48.552;9.370;2023-04-03T13:15:59;7.00;83.20
4602;DHT22;2313;48.552;9.370;2023-04-03T13:18:30;7.00;85.70
4602;DHT22;2313;48.552;9.370;2023-04-03T13:21:11;7.00;82.90
4602;DHT22;2313;48.552;9.370;2023-04-03T13:23:41;6.70;82.10
4602;DHT22;2313;48.552;9.370;2023-04-03T13:26:08;6.80;85.00
4602;DHT22;2313;48.552;9.370;2023-04-03T13:28:34;6.70;84.70
4602;DHT22;2313;48.552;9.370;2023-04-03T13:33:43;6.80;84.60
4602;DHT22;2313;48.552;9.370;2023-04-03T13:36:20;6.80;86.70
4602;DHT22;2313;48.552;9.370;2023-04-03T13:41:35;6.90;83.00
4602;DHT22;2313;48.552;9.370;2023-04-03T13:46:54;7.20;83.90
4602;DHT22;2313;48.552;9.370;2023-04-03T13:49:21;7.30;82.40
4602;DHT22;2313;48.552;9.370;2023-04-03T13:51:47;7.40;81.90
4602;DHT22;2313;48.552;9.370;2023-04-03T13:54:24;7.60;80.80
4602;DHT22;2313;48.552;9.370;2023-04-03T13:56:56;7.50;79.80
4602;DHT22;2313;48.552;9.370;2023-04-03T13:59:30;7.60;79.70
4602;DHT22;2313;48.552;9.370;2023-04-03T14:04:31;7.70;81.10
4602;DHT22;2313;48.552;9.370;2023-04-03T14:06:57;7.60;80.30
4602;DHT22;2313;48.552;9.370;2023-04-03T14:09:26;7.60;79.60
4602;DHT22;2313;48.552;9.370;2023-04-03T14:14:39;7.60;80.50
4602;DHT22;2313;48.552;9.370;2023-04-03T14:17:17;7.50;79.80
4602;DHT22;2313;48.552;9.370;2023-04-03T14:19:44;7.50;79.40
4602;DHT22;2313;48.552;9.370;2023-04-03T14:22:32;7.40;77.20
4602;DHT22;2313;48.552;9.370;2023-04-03T14:24:59;7.30;77.10
4602;DHT22;2313;48.552;9.370;2023-04-03T14:27:33;7.20;76.60
4602;DHT22;2313;48.552;9.370;2023-04-03T14:30:00;7.20;79.30
4602;DHT22;2313;48.552;9.370;2023-04-03T14:32:28;7.20;79.00
4602;DHT22;2313;48.552;9.370;2023-04-03T14:34:54;7.20;79.70
4602;DHT22;2313;48.552;9.370;2023-04-03T14:37:26;7.20;77.60
4602;DHT22;2313;48.552;9.370;2023-04-03T14:39:53;7.10;77.00
4602;DHT22;2313;48.552;9.370;2023-04-03T14:42:29;7.10;77.50
4602;DHT22;2313;48.552;9.370;2023-04-03T14:44:56;7.20;80.40
4602;DHT22;2313;48.552;9.370;2023-04-03T14:47:28;7.20;77.00
4602;DHT22;2313;48.552;9.370;2023-04-03T14:49:55;7.40;76.70
4602;DHT22;2313;48.552;9.370;2023-04-03T14:52:34;7.30;75.90
4602;DHT22;2313;48.552;9.370;2023-04-03T14:55:00;7.20;76.10
4602;DHT22;2313;48.552;9.370;2023-04-03T14:57:28;7.10;76.80
4602;DHT22;2313;48.552;9.370;2023-04-03T14:59:54;7.20;77.90
4602;DHT22;2313;48.552;9.370;2023-04-03T15:02:35;7.20;77.40
4602;DHT22;2313;48.552;9.370;2023-04-03T15:05:02;7.20;76.80
4602;DHT22;2313;48.552;9.370;2023-04-03T15:07:31;7.10;77.20
4602;DHT22;2313;48.552;9.370;2023-04-03T15:10:23;7.00;76.40
4602;DHT22;2313;48.552;9.370;2023-04-03T15:12:50;7.00;76.10
4602;DHT22;2313;48.552;9.370;2023-04-03T15:15:18;7.00;77.40
4602;DHT22;2313;48.552;9.370;2023-04-03T15:17:45;7.00;77.30
4602;DHT22;2313;48.552;9.370;2023-04-03T15:20:18;7.10;76.50
4602;DHT22;2313;48.552;9.370;2023-04-03T15:22:45;7.10;75.40
4602;DHT22;2313;48.552;9.370;2023-04-03T15:25:11;7.00;75.60
4602;DHT22;2313;48.552;9.370;2023-04-03T15:27:38;6.90;76.20
4602;DHT22;2313;48.552;9.370;2023-04-03T15:30:08;7.10;76.80
4602;DHT22;2313;48.552;9.370;2023-04-03T15:32:36;7.10;75.00
4602;DHT22;2313;48.552;9.370;2023-04-03T15:35:02;7.20;77.90
4602;DHT22;2313;48.552;9.370;2023-04-03T15:37:27;7.20;74.90
4602;DHT22;2313;48.552;9.370;2023-04-03T15:39:53;7.10;75.80
4602;DHT22;2313;48.552;9.370;2023-04-03T15:42:19;6.90;76.00
4602;DHT22;2313;48.552;9.370;2023-04-03T15:44:44;6.90;77.20
4602;DHT22;2313;48.552;9.370;2023-04-03T15:47:10;7.10;76.70
4602;DHT22;2313;48.552;9.370;2023-04-03T15:49:36;7.00;75.10
4602;DHT22;2313;48.552;9.370;2023-04-03T15:52:03;6.90;76.90
4602;DHT22;2313;48.552;9.370;2023-04-03T15:54:28;6.80;76.40
4602;DHT22;2313;48.552;9.370;2023-04-03T15:56:55;6.90;75.90
4602;DHT22;2313;48.552;9.370;2023-04-03T15:59:21;7.00;76.50
4602;DHT22;2313;48.552;9.370;2023-04-03T16:01:47;7.00;77.00
4602;DHT22;2313;48.552;9.370;2023-04-03T16:04:12;6.90;74.90
4602;DHT22;2313;48.552;9.370;2023-04-03T16:06:38;6.90;75.70
4602;DHT22;2313;48.552;9.370;2023-04-03T16:09:04;6.90;73.70
4602;DHT22;2313;48.552;9.370;2023-04-03T16:11:31;6.90;71.90
4602;DHT22;2313;48.552;9.370;2023-04-03T16:13:57;6.80;71.20
4602;DHT22;2313;48.552;9.370;2023-04-03T16:16:24;6.80;74.50
4602;DHT22;2313;48.552;9.370;2023-04-03T16:18:51;6.70;73.50
4602;DHT22;2313;48.552;9.370;2023-04-03T16:21:17;6.60;72.20
4602;DHT22;2313;48.552;9.370;2023-04-03T16:23:43;6.60;73.50
4602;DHT22;2313;48.552;9.370;2023-04-03T16:26:09;6.70;73.20
4602;DHT22;2313;48.552;9.370;2023-04-03T16:28:35;6.70;75.20
4602;DHT22;2313;48.552;9.370;2023-04-03T16:31:01;6.80;75.90
4602;DHT22;2313;48.552;9.370;2023-04-03T16:33:28;6.90;73.80
4602;DHT22;2313;48.552;9.370;2023-04-03T16:35:54;7.00;73.20
4602;DHT22;2313;48.552;9.370;2023-04-03T16:38:20;7.00;71.70
4602;DHT22;2313;48.552;9.370;2023-04-03T16:40:48;7.10;71.70
4602;DHT22;2313;48.552;9.370;2023-04-03T16:43:14;7.00;71.30
4602;DHT22;2313;48.552;9.370;2023-04-03T16:45:40;7.00;73.90
4602;DHT22;2313;48.552;9.370;2023-04-03T16:48:06;6.80;72.50
4602;DHT22;2313;48.552;9.370;2023-04-03T16:50:32;6.80;73.30
4602;DHT22;2313;48.552;9.370;2023-04-03T16:52:57;6.70;72.80
4602;DHT22;2313;48.552;9.370;2023-04-03T16:55:23;6.90;76.70
4602;DHT22;2313;48.552;9.370;2023-04-03T16:57:49;6.80;73.60
4602;DHT22;2313;48.552;9.370;2023-04-03T17:00:15;6.50;72.00
4602;DHT22;2313;48.552;9.370;2023-04-03T17:02:40;6.70;74.00
4602;DHT22;2313;48.552;9.370;2023-04-03T17:05:06;6.80;75.10
4602;DHT22;2313;48.552;9.370;2023-04-03T17:07:32;6.80;75.80
4602;DHT22;2313;48.552;9.370;2023-04-03T17:09:58;6.70;74.20
4602;DHT22;2313;48.552;9.370;2023-04-03T17:12:24;6.70;75.50
4602;DHT22;2313;48.552;9.370;2023-04-03T17:14:49;6.70;76.20
4602;DHT22;2313;48.552;9.370;2023-04-03T17:17:19;6.60;75.30
4602;DHT22;2313;48.552;9.370;2023-04-03T17:19:46;6.40;75.40
4602;DHT22;2313;48.552;9.370;2023-04-03T17:22:11;6.40;75.80
4602;DHT22;2313;48.552;9.370;2023-04-03T17:24:37;6.40;77.30
4602;DHT22;2313;48.552;9.370;2023-04-03T17:27:03;6.20;76.60
4602;DHT22;2313;48.552;9.370;2023-04-03T17:29:29;6.10;76.30
4602;DHT22;2313;48.552;9.370;2023-04-03T17:31:54;6.00;75.60
4602;DHT22;2313;48.552;9.370;2023-04-03T17:34:20;6.00;77.70
4602;DHT22;2313;48.552;9.370;2023-04-03T17:36:46;5.90;75.60
4602;DHT22;2313;48.552;9.370;2023-04-03T17:39:12;5.80;76.90
4602;DHT22;2313;48.552;9.370;2023-04-03T17:41:38;5.90;77.50
4602;DHT22;2313;48.552;9.370;2023-04-03T17:44:04;5.90;78.40
4602;DHT22;2313;48.552;9.370;2023-04-03T17:46:30;5.90;77.40
4602;DHT22;2313;48.552;9.370;2023-04-03T17:48:55;5.80;78.20
4602;DHT22;2313;48.552;9.370;2023-04-03T17:51:24;5.70;78.30
4602;DHT22;2313;48.552;9.370;2023-04-03T17:53:50;5.70;78.20
4602;DHT22;2313;48.552;9.370;2023-04-03T17:56:18;5.70;78.90
4602;DHT22;2313;48.552;9.370;2023-04-03T17:58:45;5.60;78.00
4602;DHT22;2313;48.552;9.370;2023-04-03T18:01:13;5.60;78.60
4602;DHT22;2313;48.552;9.370;2023-04-03T18:03:39;5.60;78.00
4602;DHT22;2313;48.552;9.370;2023-04-03T18:06:07;5.50;77.60
4602;DHT22;2313;48.552;9.370;2023-04-03T18:08:36;5.50;77.50
4602;DHT22;2313;48.552;9.370;2023-04-03T18:11:03;5.50;77.80
4602;DHT22;2313;48.552;9.370;2023-04-03T18:13:29;5.50;79.00
4602;DHT22;2313;48.552;9.370;2023-04-03T18:15:54;5.50;79.80